Flugplatz Sierksdorf/Hof Altona

Für EDXT sind keine METAR/TAF Berichte vorhanden.
Es werden die Flugwettermeldungen vom Flugplatz Lübeck Blankensee in 29 km Entfernung angezeigt.

Bericht für EDHL

vom 18.01. um 15:50 UTC

Wind 11 kt aus 210°

Sichtweite 4500 m

schwacher Regen

aufgebrochene Bewölkung in 1200 ft

Temperatur 4.0°C

Taupunkt 3.0°C

Luftfeuchtigkeit 93%

Luftdruck 1013 hPa

EDHL 181550Z 21011KT 4500 -RA BKN012 04/03 Q1013

Prognose für EDHL

vom 18.01. um 14:00 UTC

Zwischen 15:00 UTC und 21:00 UTC

Wind 7 kt aus 240°

Sichtweite 7000 m

bedeckt in 700 ft


Zwischen 15:00 UTC und 21:00 UTC zeitweise mit einer Wahrscheinlichkeit von 40%

Sichtweite 3000 m

schwacher Regen

schwacher Sprühregen

aufgebrochene Bewölkung in 400 ft

TAF EDHL 181400Z 1815/1821 24007KT 7000 OVC007 PROB40 TEMPO 1815/1821 3000 -RADZ BKN004
Impressum